Albert Bero

Recruteur en chef - Slovan Bratislava
4 Juin 2028
Dimanche
Processus

Personnalité

Adaptabilité (7) Ambition (6) Controverse (6) Loyauté (18) Pression (12) Professionnalisme (19) Sportivité (15) Tempérament (5)

Profil

Style d'entraînement Démocratique
Diplôme National B
Détermination 10
Gestion des joueurs 10
Motivation 5
Discipline 11
Satisfaction professionnelle
100%
Fatigue
0%
Rôle Recruteur en chef
Salaire 79.7K p/s
Contrat 14.03.2029

Performance

Comportement Bon
Efficacité de l'entraînement
46%
Développement des joueurs
45%
Prévention des blessures
50%
Mise en place tactique
55%

Événements récents

A évalué un joueur maintenant
A présenté un dossier au conseil maintenant
A évalué un joueur maintenant
A présenté un dossier au conseil maintenant
A évalué un joueur maintenant

Suivi en cours

121
Joueur Club Statut Capacité Confiance Observé Dernière observation Dernier vote
Germán Berterame Newcastle United Actif 147 / 145 40% 1 03.06.2028 -
Callum Lang Preston Actif 126 / 121 40% 1 03.06.2028 -
Davis Keillor-Dunn Wrexham Actif 122 / 120 40% 1 03.06.2028 -
Aaron Connolly Leyton Orient Actif 131 / 125 40% 2 02.06.2028 -
Ammar Ramadan DAC Dunajska Streda Rapport prêt 137 / 124 72% 1 02.06.2028 -
Morgan Whittaker Middlesbrough Actif 143 / 134 40% 1 02.06.2028 -
Walid Cheddira Avellino Actif 125 / 124 40% 1 02.06.2028 -
Imrân Louza Watford Actif 140 / 133 40% 2 01.06.2028 -
Matej Trusa DAC Dunajska Streda Rapport prêt 117 / 118 72% 1 01.06.2028 -
Brian De Keersmaecker Oxford United Actif 134 / 126 40% 1 01.06.2028 -
Ben Cabango Swansea City Actif 130 / 127 40% 1 01.06.2028 -
Lautaro Disanto Defensores Unidos Actif 119 / 114 40% 2 24.01.2028 -
Alejo Dramisino Atlanta Actif 126 / 123 40% 1 24.01.2028 -
Jaminton Campaz Rosario Central Actif 129 / 133 40% 1 09.01.2028 -
Patricio Moyano Defensores Actif 120 / 124 40% 1 09.01.2028 -
Luka Silagadze Podbrezova Actif 113 / 115 72% 1 02.01.2028 Approuver
Leandro Lozano Boca Juniors Actif 126 / 130 40% 1 01.01.2028 -
Brian Orosco Godoy Cruz Perdu 117 / 117 40% 1 31.08.2027 Plus d'infos
Ángelo Lucena Carabobo Actif 104 / 103 40% 1 30.08.2027 Plus d'infos
Agustín Araujo Trujillanos Actif 111 / 110 40% 1 28.08.2027 -
Juan Camilo Pérez Carabobo Actif 125 / 122 40% 2 27.08.2027 -
Delvin Alfonzo Deportivo Tachira Actif 118 / 108 40% 1 27.08.2027 -
Ignacio Vallejos Colegiales Actif 117 / 106 40% 1 27.08.2027 -
Martín Campos Ferro Carril Oeste Actif 123 / 118 40% 1 26.08.2027 -
Alisher Odilov Neftchi Actif 125 / 110 40% 1 25.08.2027 -
César Magallan Estudiantes de Merida Actif 105 / 100 40% 1 25.08.2027 -
Matías Bergara Nueva Chicago Actif 114 / 111 40% 1 25.08.2027 -
Matías Viguet Maipú Actif 121 / 106 40% 1 23.08.2027 -
Emanuele Schimmenti Potenza Actif 118 / 120 40% 2 19.08.2027 -
Riccardo Marchizza Frosinone Actif 123 / 132 40% 1 19.08.2027 -
Ilias Akhomach Villarreal Actif 149 / 152 40% 1 16.08.2027 -
Tomáš Suslov Hellas Verona Actif 136 / 141 40% 1 15.08.2027 -
Kaleb Jimenez Catania Actif 115 / 113 40% 2 14.08.2027 -
Jurgen Ekkelenkamp Udinese Actif 143 / 141 40% 1 14.08.2027 -
Tony Springett Lecco Actif 110 / 108 40% 1 13.08.2027 -
Stiven Shpendi Empoli Actif 122 / 124 40% 1 11.08.2027 -
Manuel Cicconi Sampdoria Actif 122 / 130 40% 3 10.08.2027 -
Kayne Ramsay Charlton Athletic Actif 133 / 134 40% 2 07.08.2027 -
Derensili Sanches Fernandes Huddersfield Town Actif 136 / 122 40% 3 06.08.2027 -
Paddy Lane Reading Actif 110 / 117 40% 1 06.08.2027 -
Tyler Goodrham Oxford United Actif 123 / 131 40% 1 06.08.2027 -
Christian Saydee Wigan Athletic Actif 122 / 121 40% 1 05.08.2027 -
Isaiah Jones Luton Town Actif 126 / 123 40% 1 05.08.2027 -
Koki Saito Queens Park Rangers Actif 129 / 127 40% 2 04.08.2027 -
Tyreece Campbell Charlton Athletic Actif 119 / 128 40% 1 04.08.2027 -
Oladapo Afolayan Blackburn Rovers Actif 126 / 121 40% 1 04.08.2027 -
Myles Peart-Harris Bristol Rovers Actif 121 / 120 40% 2 02.08.2027 -
Gustavo Hamer Sheffield United Actif 138 / 134 40% 1 02.08.2027 -
Idrissa Touré Monza Actif 135 / 137 40% 2 31.07.2027 -
Ilias Chair Queens Park Rangers Actif 128 / 127 40% 1 31.07.2027 -
Richard Koné Queens Park Rangers Actif 123 / 121 40% 1 29.07.2027 -
Todd Cantwell Blackburn Rovers Actif 140 / 132 40% 1 28.07.2027 -
Joel Bagan Cardiff City Actif 119 / 112 40% 1 28.07.2027 -
Othmane Maamma Watford Actif 124 / 130 40% 1 26.07.2027 -
Josh Tymon Swansea City Actif 134 / 122 40% 1 26.07.2027 -
Mathias Kvistgaarden Norwich City Actif 125 / 130 40% 1 26.07.2027 -
Isaak Davies Cardiff City Actif 117 / 115 40% 2 25.07.2027 -
Joseph Hungbo Wigan Athletic Actif 116 / 110 40% 1 25.07.2027 -
Ethan Williams Peterborough United Actif 121 / 125 40% 1 23.07.2027 -
Ronan Hale Gillingham Actif 122 / 109 40% 1 23.07.2027 -
Anis Mehmeti Ipswich Town Actif 139 / 136 40% 1 21.07.2027 -
Alex Robertson Cardiff City Actif 123 / 122 40% 1 21.07.2027 -
Renzo Reynaga Lincoln City Actif 120 / 118 40% 1 19.07.2027 -
Andri Guðjohnsen Blackburn Rovers Actif 123 / 122 40% 1 19.07.2027 -
Tomáš Rigo Stoke City Actif 138 / 134 40% 1 18.07.2027 -
Andre Brooks Sheffield United Actif 130 / 127 40% 1 18.07.2027 -
Erickson Gallardo Zamora Actif 109 / 114 40% 2 15.07.2027 -
Khalid Al-Ghannam Al-Ettifaq Actif 127 / 110 40% 1 15.07.2027 -
Josh Neufville Bradford City Actif 117 / 115 40% 1 12.07.2027 -
Aldo Florenzi Cosenza Actif 125 / 121 40% 1 12.07.2027 -
Simone Mazzocchi Cosenza Actif 124 / 120 40% 1 11.07.2027 -
Andrea Franzoni Virtus Entella Actif 117 / 124 40% 1 11.07.2027 -
Pablo Vitali Pontedera Actif 109 / 107 40% 1 09.07.2027 -
Guillaume Furrer Lecco Actif 108 / 103 40% 1 09.07.2027 -
Simone Giordano Juve Stabia Actif 118 / 122 40% 2 08.07.2027 -
Mirko Antonucci Cittadella Actif 119 / 119 40% 1 04.07.2027 -
Giovanni Bruzzaniti Catania Actif 111 / 119 40% 1 02.07.2027 -
Roman Procházka Spartak Trnava Actif 116 / 101 69% 1 28.06.2027 Approuver
Dany Mota Monza Actif 135 / 137 40% 2 21.06.2027 -
Marc Bola Watford Actif 122 / 127 40% 1 21.06.2027 -
Akor Adams Venezia Actif 142 / 140 40% 1 05.06.2027 -
Filip Stojilković Pisa Actif 131 / 122 40% 1 03.06.2027 -
Emanuele Adamo Spezia Actif 125 / 122 40% 1 02.06.2027 -
Joe Knight Stevenage Actif 98 / 111 40% 2 27.01.2027 -
Jamie Wähling Hibernians Actif 84 / 89 40% 1 27.01.2027 -
Kazunari Kita Real Sociedad Actif 95 / 98 40% 2 25.01.2027 -
Saël Kumbedi VfL Wolfsburg Actif 137 / 138 40% 1 25.01.2027 -
Aleksandre Narimanidze MSK Zilina Actif 100 / 99 40% 2 21.01.2027 -
Ezra Mayers West Ham United Actif 116 / 123 40% 1 19.01.2027 -
Savely Nikiforov Zenit Actif 84 / 89 40% 1 11.01.2027 -
Wilmar Borja La Equidad Actif 106 / 112 40% 1 10.01.2027 -
Ivan Shilenok Zenit Actif 90 / 92 40% 1 10.01.2027 -
Andrej Sestak FK Senica Actif 109 / 104 40% 3 06.01.2027 -
Marius Courcoul Olympique de Marseille Actif 119 / 116 40% 1 06.01.2027 -
Juan Rodríguez Cagliari Actif 116 / 117 40% 2 05.01.2027 -
Tadeáš Hájovský AS Trencin Actif 104 / 99 40% 2 03.01.2027 -
Bernardo Lima Porto Actif 95 / 99 40% 1 03.01.2027 -
Gideon Manaseh Ikorodu City Actif 87 / 103 40% 1 31.08.2026 Plus d'infos
Zakaria Taifi Orlando City Actif 82 / 105 40% 1 31.08.2026 Plus d'infos
Alejo Gelsomino Gimnasia La Plata Actif 93 / 96 40% 1 31.08.2026 Plus d'infos
Gia Nadareishvili AS Trencin Actif 104 / 112 40% 2 29.08.2026 -
Christopher Shaw Liverpool Actif 107 / 108 40% 1 29.08.2026 -
Ramiro Centurión San Lorenzo Actif 88 / 107 40% 1 28.08.2026 -
Justin-Noël Kalumba Mallorca Actif 113 / 121 40% 1 27.08.2026 -
Demián Troya Platense Actif 103 / 108 40% 1 27.08.2026 -
Jonny Shore New York City Actif 96 / 111 40% 1 27.08.2026 -
Tyler Fletcher Manchester United Actif 100 / 104 40% 2 26.08.2026 -
Ángel Peñaranda Mineros de Guayana Actif 76 / 93 40% 1 22.08.2026 -
Thiago Villalba Vélez Actif 97 / 94 40% 1 21.08.2026 -
Josh Laqeretabua Charlton Athletic Actif 91 / 98 40% 1 21.08.2026 -
Adam Morong MFK Skalica Actif 93 / 93 30% 1 / 1m 19.08.2026 -
Aleksandar Stanisavljević Actif 93 / 93 30% 1 / 1m 19.08.2026 -
Tommy McDermott Burnley Actif 91 / 110 40% 1 12.08.2026 -
Filip Mielke Podbrezova Actif 100 / 95 40% 1 10.08.2026 -
Giovanni Marques Argentinos Juniors Actif 84 / 98 40% 1 10.08.2026 -
Rory Finneran Newcastle United Actif 93 / 106 40% 1 10.08.2026 -
Agustín Seyral Sarmiento Actif 97 / 96 40% 1 09.08.2026 -
Teun Gijselhart Deportivo La Coruña Actif 105 / 116 40% 1 08.08.2026 -
Marcos López Banfield Actif 103 / 100 40% 1 05.08.2026 -
Santiago Cena Independiente Rivadavia Actif 97 / 99 40% 1 02.08.2026 -
Nobel Mendy Hull City Actif 120 / 132 40% 1 01.08.2026 -